Aérodrome :
LOGIN :

S'inscrire | Disclaimer

   EN    FR    IT 

 










Légende :    VFR   VFR Marginal   IFR   IFR Intensif   IFR Très Intensif
Visi : 
Plafond : 
>= 8 km
>= 3000ft
5 à 8 km
1000 à 3000 ft
1500m à 5 km
500 à 1000 ft
800 à 1500m
200 à 500 ft
< 800m
< 200 ft
Symboles :   Orages  Brouillard  Fortes neiges  Fortes précipitations  Vent > 20 kt
SIGMETs :   Divers  Orages  Givrage  Turbulence  Onde Orograph.  Cendres Volcan.






- Altitude de l'aérodrome : 1276 ft
- Code IATA : STR


EDDS - Stuttgart

DERNIER METAR :
  • 161650Z 11001KT 9999 FEW018 BKN028 M01/M05 Q1022 NOSIG

METARs EXPIRÉS :
  • 161620Z VRB01KT 9999 FEW018 BKN028 M01/M04 Q1023 NOSIG
  • 161550Z 36005KT 330V050 9999 FEW023 BKN028 M01/M04 Q1022 NOSIG
  • 161520Z 03005KT 360V060 9999 BKN027 M01/M04 Q1023 NOSIG
  • 161450Z 01004KT 340V040 9999 FEW023 BKN028 M00/M04 Q1023 NOSIG
  • 161420Z 29005KT 230V320 9999 FEW023 BKN029 00/M06 Q1023 NOSIG

TAF TAF EDDS
Valide du 16 à 12h jusqu'au 17 à 12h UTC


161100Z 1612/1712 25005KT 9999 FEW020
BECMG 1616/1618 VRB03KT
BECMG 1622/1624 4000 -SN BKN008
PROB30
TEMPO 1700/1705 1000 SN BKN003
TEMPO 1705/1712 2000 BKN003
BECMG 1711/1712 29005KT



MET'MAP, la Météo Aéronautique d'un coup d'oeil ! - Copyright ORBIFLY Décembre 2007 - Disclaimer

ORBIFLY MET'MAP TEAM :

Programmation & Développement : Alexandra Zaïnal
Sur une idée originale de : Baudouin d'Aumeries
Assistance à la programmation : Marc-Olivier Méhu
Soutien technique & logistique : Manuel Goepfert

Contact : metmap@orbifly.com




SOURCES & CREDITS :

   NOAA